createdAt,value
2019-05-18T00:01:35.573Z,100.00
2019-05-18T00:04:06.142Z,100.00
2019-05-18T00:06:35.340Z,100.00
2019-05-18T00:09:09.005Z,100.00
2019-05-18T00:11:39.602Z,100.00
2019-05-18T00:14:16.274Z,100.00
2019-05-18T00:16:47.634Z,100.00
2019-05-18T00:19:18.634Z,100.00
2019-05-18T00:21:48.763Z,100.00
2019-05-18T00:24:17.927Z,100.00
2019-05-18T00:26:47.454Z,100.00
2019-05-18T00:29:19.192Z,100.00
2019-05-18T00:31:49.876Z,100.00
2019-05-18T00:34:21.238Z,100.00
2019-05-18T00:36:51.313Z,100.00
2019-05-18T00:39:20.487Z,100.00
2019-05-18T00:41:51.728Z,100.00
2019-05-18T00:44:21.414Z,100.00
2019-05-18T00:46:51.995Z,100.00
2019-05-18T00:49:21.721Z,100.00
2019-05-18T00:51:51.296Z,100.00
2019-05-18T00:54:20.772Z,100.00
2019-05-18T00:56:52.276Z,100.00
2019-05-18T00:59:22.225Z,100.00
2019-05-18T01:01:52.984Z,100.00
2019-05-18T01:04:22.458Z,100.00
2019-05-18T01:06:51.973Z,100.00
2019-05-18T01:09:25.675Z,100.00
2019-05-18T01:11:55.246Z,100.00
2019-05-18T01:14:25.626Z,100.00
2019-05-18T01:16:55.106Z,100.00
2019-05-18T01:19:30.330Z,100.00
2019-05-18T01:22:02.524Z,100.00
2019-05-18T01:24:33.900Z,100.00
2019-05-18T01:27:03.691Z,100.00
2019-05-18T01:29:33.931Z,100.00
2019-05-18T01:32:03.469Z,100.00
2019-05-18T01:34:32.891Z,100.00
2019-05-18T01:37:02.713Z,100.00
2019-05-18T01:39:32.246Z,100.00
2019-05-18T01:42:03.322Z,100.00
2019-05-18T01:44:33.667Z,100.00
2019-05-18T01:47:02.858Z,100.00
2019-05-18T01:49:32.293Z,100.00
2019-05-18T01:52:01.507Z,100.00
2019-05-18T01:54:33.068Z,100.00
2019-05-18T01:57:02.249Z,100.00
2019-05-18T01:59:32.053Z,100.00
2019-05-18T02:02:01.241Z,100.00
2019-05-18T02:04:40.337Z,100.00
2019-05-18T02:07:09.639Z,100.00
2019-05-18T02:09:39.229Z,100.00
2019-05-18T02:12:08.407Z,100.00
2019-05-18T02:14:38.134Z,100.00
2019-05-18T02:17:07.851Z,100.00
2019-05-18T02:19:37.458Z,100.00
2019-05-18T02:22:08.141Z,100.00
2019-05-18T02:24:37.882Z,100.00
2019-05-18T02:27:07.341Z,100.00
2019-05-18T02:29:40.433Z,100.00
2019-05-18T02:32:09.912Z,100.00
2019-05-18T02:34:39.869Z,100.00
2019-05-18T02:37:10.052Z,100.00
2019-05-18T02:39:40.116Z,100.00
2019-05-18T02:42:10.070Z,100.00
2019-05-18T02:44:40.775Z,100.00
2019-05-18T02:47:12.142Z,100.00
2019-05-18T02:49:41.594Z,100.00
2019-05-18T02:52:11.111Z,100.00
2019-05-18T02:54:41.121Z,100.00
2019-05-18T02:57:11.135Z,100.00
2019-05-18T02:59:40.636Z,100.00
2019-05-18T03:02:14.491Z,100.00
2019-05-18T03:04:45.623Z,100.00
2019-05-18T03:07:14.799Z,100.00
2019-05-18T03:09:46.758Z,100.00
2019-05-18T03:12:16.202Z,100.00
2019-05-18T03:14:47.256Z,100.00
2019-05-18T03:17:17.836Z,100.00
2019-05-18T03:19:47.779Z,100.00
2019-05-18T03:22:20.907Z,100.00
2019-05-18T03:24:50.439Z,100.00
2019-05-18T03:27:19.892Z,100.00
2019-05-18T03:29:53.004Z,100.00
2019-05-18T03:32:26.668Z,100.00
2019-05-18T03:34:57.866Z,100.00
2019-05-18T03:37:29.459Z,100.00
2019-05-18T03:39:58.657Z,100.00
2019-05-18T03:42:28.096Z,100.00
2019-05-18T03:44:57.740Z,100.00
2019-05-18T03:47:28.695Z,100.00
2019-05-18T03:50:03.045Z,100.00
2019-05-18T03:52:33.081Z,100.00
2019-05-18T03:55:02.791Z,100.00
2019-05-18T03:57:32.763Z,100.00
2019-05-18T04:00:02.601Z,100.00
2019-05-18T04:02:31.770Z,100.00
2019-05-18T04:05:05.902Z,100.00
2019-05-18T04:07:36.014Z,100.00
2019-05-18T04:10:07.114Z,100.00
2019-05-18T04:12:39.050Z,100.00
2019-05-18T04:15:10.395Z,100.00
2019-05-18T04:17:40.890Z,100.00
2019-05-18T04:20:10.790Z,100.00
2019-05-18T04:22:40.453Z,100.00
2019-05-18T04:25:10.045Z,100.00
2019-05-18T04:27:40.356Z,100.00
2019-05-18T04:30:10.257Z,100.00
2019-05-18T04:32:39.846Z,100.00
2019-05-18T04:35:11.474Z,100.00
2019-05-18T04:37:41.342Z,100.00
2019-05-18T04:40:12.010Z,100.00
2019-05-18T04:42:41.196Z,100.00
2019-05-18T04:45:11.254Z,100.00
2019-05-18T04:47:41.262Z,100.00
2019-05-18T04:50:12.723Z,100.00
2019-05-18T04:52:43.091Z,100.00
2019-05-18T04:55:12.512Z,100.00
2019-05-18T04:57:42.179Z,100.00
2019-05-18T05:00:13.318Z,100.00
2019-05-18T05:02:42.802Z,100.00
2019-05-18T05:05:12.771Z,100.00
2019-05-18T05:07:42.785Z,100.00
2019-05-18T05:10:12.253Z,100.00
2019-05-18T05:12:41.776Z,100.00
2019-05-18T05:15:11.945Z,100.00
2019-05-18T05:17:42.671Z,100.00
2019-05-18T05:20:19.676Z,100.00
2019-05-18T05:22:45.277Z,100.00
2019-05-18T05:25:15.004Z,100.00
2019-05-18T05:27:44.988Z,100.00
2019-05-18T05:30:16.053Z,100.00
2019-05-18T05:32:45.215Z,100.00
2019-05-18T05:35:16.892Z,100.00
2019-05-18T05:37:46.375Z,100.00
2019-05-18T05:40:16.348Z,100.00
2019-05-18T05:42:46.327Z,100.00
2019-05-18T05:45:15.864Z,100.00
2019-05-18T05:47:45.294Z,100.00
2019-05-18T05:50:18.029Z,100.00
2019-05-18T05:52:48.155Z,100.00
2019-05-18T05:55:20.795Z,100.00
2019-05-18T05:57:50.811Z,100.00
2019-05-18T06:00:21.417Z,100.00
2019-05-18T06:02:51.672Z,100.00
2019-05-18T06:05:21.127Z,100.00
2019-05-18T06:07:53.364Z,100.00
2019-05-18T06:10:45.435Z,100.00
2019-05-18T06:13:20.923Z,100.00
2019-05-18T06:16:01.211Z,100.00
2019-05-18T06:18:31.098Z,100.00
2019-05-18T06:21:00.651Z,100.00
2019-05-18T06:23:29.855Z,100.00
2019-05-18T06:26:01.358Z,100.00
2019-05-18T06:28:31.146Z,100.00
2019-05-18T06:31:00.870Z,100.00
2019-05-18T06:33:30.400Z,100.00
2019-05-18T06:35:59.649Z,100.00
2019-05-18T06:38:30.398Z,100.00
2019-05-18T06:40:59.590Z,100.00
2019-05-18T06:43:28.812Z,100.00
2019-05-18T06:45:58.280Z,100.00
2019-05-18T06:48:27.477Z,100.00
2019-05-18T06:51:06.784Z,100.00
2019-05-18T06:53:28.743Z,100.00
2019-05-18T06:55:58.762Z,100.00
2019-05-18T06:58:28.251Z,100.00
2019-05-18T07:00:58.348Z,100.00
2019-05-18T07:03:28.426Z,100.00
2019-05-18T07:05:57.859Z,100.00
2019-05-18T07:08:27.051Z,100.00
2019-05-18T07:10:56.524Z,100.00
2019-05-18T07:13:26.894Z,100.00
2019-05-18T07:15:59.507Z,100.00
2019-05-18T07:18:30.020Z,100.00
2019-05-18T07:21:03.181Z,100.00
2019-05-18T07:23:32.350Z,100.00
2019-05-18T07:26:01.594Z,100.00
2019-05-18T07:28:31.073Z,100.00
2019-05-18T07:31:00.575Z,100.00
2019-05-18T07:33:35.018Z,100.00
2019-05-18T07:36:05.597Z,100.00
2019-05-18T07:38:35.045Z,100.00
2019-05-18T07:41:04.285Z,100.00
2019-05-18T07:43:35.306Z,100.00
2019-05-18T07:46:08.275Z,100.00
2019-05-18T07:48:36.267Z,100.00
2019-05-18T07:51:06.743Z,100.00
2019-05-18T07:53:35.908Z,100.00
2019-05-18T07:56:06.857Z,100.00
2019-05-18T07:58:37.174Z,100.00
2019-05-18T08:01:08.366Z,100.00
2019-05-18T08:03:39.070Z,100.00
2019-05-18T08:06:08.606Z,100.00
2019-05-18T08:08:38.470Z,100.00
2019-05-18T08:11:07.471Z,100.00
2019-05-18T08:13:37.257Z,100.00
2019-05-18T08:16:07.243Z,100.00
2019-05-18T08:18:38.587Z,100.00
2019-05-18T08:21:10.396Z,100.00
2019-05-18T08:23:39.827Z,100.00
2019-05-18T08:26:09.013Z,100.00
2019-05-18T08:28:38.160Z,100.00
2019-05-18T08:31:07.311Z,100.00
2019-05-18T08:33:36.533Z,100.00
2019-05-18T08:36:05.751Z,100.00
2019-05-18T08:38:34.930Z,100.00
2019-05-18T08:41:04.104Z,100.00
2019-05-18T08:43:33.279Z,100.00
2019-05-18T08:46:02.482Z,100.00
2019-05-18T08:48:31.645Z,100.00
2019-05-18T08:51:00.817Z,100.00
2019-05-18T08:53:30.014Z,100.00
2019-05-18T08:55:59.201Z,100.00
2019-05-18T08:58:28.373Z,100.00
2019-05-18T09:00:57.539Z,100.00
2019-05-18T09:03:27.072Z,100.00
2019-05-18T09:05:57.021Z,100.00
2019-05-18T09:08:26.466Z,100.00
2019-05-18T09:10:58.280Z,100.00
2019-05-18T09:13:27.667Z,100.00
2019-05-18T09:15:59.570Z,100.00
2019-05-18T09:18:33.403Z,100.00
2019-05-18T09:21:04.572Z,100.00
2019-05-18T09:23:35.802Z,100.00
2019-05-18T09:26:06.573Z,100.00
2019-05-18T09:28:57.137Z,100.00
2019-05-18T09:31:28.011Z,100.00
2019-05-18T09:33:57.197Z,100.00
2019-05-18T09:36:28.754Z,100.00
2019-05-18T09:38:58.272Z,100.00
2019-05-18T09:41:27.786Z,100.00
2019-05-18T09:43:57.479Z,100.00
2019-05-18T09:46:26.912Z,100.00
2019-05-18T09:48:56.659Z,100.00
2019-05-18T09:51:25.857Z,100.00
2019-05-18T09:53:55.032Z,100.00
2019-05-18T09:56:24.485Z,100.00
2019-05-18T09:58:54.146Z,100.00
2019-05-18T10:01:23.595Z,100.00
2019-05-18T10:03:52.831Z,100.00
2019-05-18T10:06:22.345Z,100.00
2019-05-18T10:08:51.542Z,100.00
2019-05-18T10:11:20.712Z,100.00
2019-05-18T10:13:50.207Z,100.00
2019-05-18T10:16:20.633Z,100.00
2019-05-18T10:18:51.204Z,100.00
2019-05-18T10:21:20.716Z,100.00
2019-05-18T10:23:50.119Z,100.00
2019-05-18T10:26:19.303Z,100.00
2019-05-18T10:28:51.103Z,100.00
2019-05-18T10:31:20.287Z,100.00
2019-05-18T10:33:49.613Z,100.00
2019-05-18T10:36:20.509Z,100.00
2019-05-18T10:38:50.226Z,100.00
2019-05-18T10:41:20.568Z,100.00
2019-05-18T10:43:50.696Z,100.00
2019-05-18T10:46:20.215Z,100.00
2019-05-18T10:48:50.176Z,100.00
2019-05-18T10:51:19.630Z,100.00
2019-05-18T10:53:49.116Z,100.00
2019-05-18T10:56:20.765Z,100.00
2019-05-18T10:58:55.352Z,100.00
2019-05-18T11:01:24.529Z,100.00
2019-05-18T11:03:54.919Z,100.00
2019-05-18T11:06:24.402Z,100.00
2019-05-18T11:08:56.138Z,96.40
2019-05-18T11:11:25.546Z,95.66
2019-05-18T11:13:55.867Z,97.01
2019-05-18T11:16:25.625Z,100.00
2019-05-18T11:18:54.823Z,93.01
2019-05-18T11:21:24.782Z,91.94
2019-05-18T11:23:54.222Z,90.52
2019-05-18T11:26:23.680Z,100.00
2019-05-18T11:28:56.924Z,100.00
2019-05-18T11:31:26.941Z,100.00
2019-05-18T11:33:56.653Z,90.05
2019-05-18T11:36:26.859Z,89.94
2019-05-18T11:38:56.667Z,91.67
2019-05-18T11:41:25.839Z,91.29
2019-05-18T11:43:55.856Z,87.37
2019-05-18T11:46:25.563Z,91.84
2019-05-18T11:48:54.954Z,92.53
2019-05-18T11:51:24.954Z,94.56
2019-05-18T11:53:58.260Z,92.60
2019-05-18T11:56:27.938Z,87.21
2019-05-18T11:58:58.803Z,88.95
2019-05-18T12:01:29.316Z,89.74
2019-05-18T12:03:58.471Z,93.16
2019-05-18T12:06:29.262Z,95.78
2019-05-18T12:08:58.834Z,91.51
2019-05-18T12:11:27.960Z,94.37
2019-05-18T12:13:57.935Z,89.99
2019-05-18T12:16:27.716Z,96.21
2019-05-18T12:18:58.894Z,91.15
2019-05-18T12:21:29.576Z,86.40
2019-05-18T12:24:14.057Z,92.54
2019-05-18T12:26:32.764Z,91.25
2019-05-18T12:29:06.225Z,96.75
2019-05-18T12:31:36.203Z,93.77
2019-05-18T12:34:07.561Z,100.00
2019-05-18T12:36:38.539Z,93.11
2019-05-18T12:39:12.011Z,91.07
2019-05-18T12:41:43.313Z,83.37
2019-05-18T12:44:13.720Z,80.15
2019-05-18T12:46:43.518Z,85.59
2019-05-18T12:49:12.956Z,84.37
2019-05-18T12:51:44.224Z,80.30
2019-05-18T12:54:13.412Z,83.28
2019-05-18T12:56:42.658Z,82.19
2019-05-18T12:59:12.088Z,86.85
2019-05-18T13:01:42.078Z,84.57
2019-05-18T13:04:11.541Z,85.44
2019-05-18T13:06:41.171Z,77.21
2019-05-18T13:09:10.333Z,75.65
2019-05-18T13:11:43.781Z,75.46
2019-05-18T13:14:13.328Z,72.13
2019-05-18T13:16:43.245Z,71.83
2019-05-18T13:19:26.153Z,70.68
2019-05-18T13:21:59.638Z,70.71
2019-05-18T13:24:44.771Z,71.22
2019-05-18T13:27:08.174Z,68.06
2019-05-18T13:29:37.920Z,67.24
2019-05-18T13:32:08.844Z,68.70
2019-05-18T13:34:41.611Z,71.43
2019-05-18T13:37:10.870Z,75.00
2019-05-18T13:39:40.305Z,79.98
2019-05-18T13:42:10.133Z,76.75
2019-05-18T13:44:39.543Z,74.66
2019-05-18T13:47:09.491Z,75.69
2019-05-18T13:49:38.645Z,73.63
2019-05-18T13:52:10.919Z,74.12
2019-05-18T13:54:40.104Z,81.99
2019-05-18T13:57:13.546Z,80.63
2019-05-18T13:59:42.976Z,80.58
2019-05-18T14:02:12.847Z,84.40
2019-05-18T14:04:42.802Z,79.52
2019-05-18T14:07:15.215Z,78.77
2019-05-18T14:09:44.496Z,76.66
2019-05-18T14:12:13.641Z,70.92
2019-05-18T14:14:42.836Z,72.03
2019-05-18T14:17:12.270Z,71.49
2019-05-18T14:19:41.481Z,69.99
2019-05-18T14:22:12.747Z,67.48
2019-05-18T14:24:42.608Z,66.16
2019-05-18T14:27:12.055Z,61.28
2019-05-18T14:29:41.583Z,61.50
2019-05-18T14:32:12.651Z,69.11
2019-05-18T14:34:43.158Z,70.47
2019-05-18T14:37:14.461Z,67.88
2019-05-18T14:39:43.683Z,72.80
2019-05-18T14:42:13.125Z,75.01
2019-05-18T14:44:42.996Z,70.14
2019-05-18T14:47:15.760Z,66.29
2019-05-18T14:49:45.590Z,64.71
2019-05-18T14:52:18.193Z,69.42
2019-05-18T14:54:47.942Z,68.45
2019-05-18T14:57:17.122Z,65.91
2019-05-18T14:59:47.067Z,64.73
2019-05-18T15:02:21.851Z,61.47
2019-05-18T15:04:53.441Z,60.49
2019-05-18T15:07:23.304Z,59.85
2019-05-18T15:09:52.491Z,63.29
2019-05-18T15:12:21.642Z,63.22
2019-05-18T15:14:51.048Z,62.63
2019-05-18T15:17:20.536Z,62.46
2019-05-18T15:19:50.311Z,66.90
2019-05-18T15:22:19.870Z,64.73
2019-05-18T15:24:49.116Z,68.85
2019-05-18T15:27:18.378Z,62.62
2019-05-18T15:29:47.622Z,62.83
2019-05-18T15:32:18.410Z,61.81
2019-05-18T15:34:47.716Z,62.15
2019-05-18T15:37:17.274Z,61.31
2019-05-18T15:39:46.457Z,59.33
2019-05-18T15:42:15.690Z,59.53
2019-05-18T15:44:46.925Z,62.40
2019-05-18T15:47:16.582Z,60.21
2019-05-18T15:49:47.951Z,64.37
2019-05-18T15:52:17.388Z,62.98
2019-05-18T15:54:48.658Z,62.67
2019-05-18T15:57:30.556Z,62.24
2019-05-18T16:00:06.206Z,62.38
2019-05-18T16:02:32.794Z,65.23
2019-05-18T16:05:02.601Z,65.05
2019-05-18T16:07:31.827Z,67.17
2019-05-18T16:10:00.996Z,71.92
2019-05-18T16:12:30.186Z,75.92
2019-05-18T16:15:00.985Z,79.34
2019-05-18T16:17:38.823Z,82.86
2019-05-18T16:20:01.076Z,86.16
2019-05-18T16:22:30.593Z,84.35
2019-05-18T16:24:59.771Z,83.77
2019-05-18T16:27:32.024Z,79.28
2019-05-18T16:30:01.477Z,77.68
2019-05-18T16:32:31.534Z,75.99
2019-05-18T16:35:00.679Z,74.66
2019-05-18T16:37:30.167Z,73.90
2019-05-18T16:39:59.438Z,73.27
2019-05-18T16:42:29.740Z,75.00
2019-05-18T16:45:00.366Z,76.31
2019-05-18T16:47:30.656Z,71.93
2019-05-18T16:50:00.137Z,76.44
2019-05-18T16:52:30.376Z,77.47
2019-05-18T16:54:59.360Z,82.78
2019-05-18T16:57:30.430Z,91.63
2019-05-18T17:00:03.601Z,95.10
2019-05-18T17:02:33.050Z,94.66
2019-05-18T17:05:02.805Z,96.78
2019-05-18T17:07:33.091Z,97.74
2019-05-18T17:10:05.387Z,98.61
2019-05-18T17:12:34.844Z,93.58
2019-05-18T17:15:08.183Z,93.19
2019-05-18T17:17:39.211Z,95.31
2019-05-18T17:20:13.158Z,93.64
2019-05-18T17:22:42.616Z,92.44
2019-05-18T17:25:13.254Z,93.74
2019-05-18T17:27:45.750Z,91.78
2019-05-18T17:30:19.503Z,94.02
2019-05-18T17:32:49.732Z,89.55
2019-05-18T17:35:24.049Z,95.88
2019-05-18T17:37:53.239Z,99.64
2019-05-18T17:40:23.220Z,96.98
2019-05-18T17:42:52.382Z,96.70
2019-05-18T17:45:22.729Z,94.51
2019-05-18T17:47:53.589Z,94.27
2019-05-18T17:50:24.048Z,92.83
2019-05-18T17:52:57.172Z,95.26
2019-05-18T17:55:33.373Z,92.46
2019-05-18T17:58:11.662Z,92.71
2019-05-18T18:00:42.135Z,94.81
2019-05-18T18:03:15.076Z,96.71
2019-05-18T18:05:46.510Z,99.78
2019-05-18T18:08:15.868Z,100.00
2019-05-18T18:10:47.508Z,98.35
2019-05-18T18:13:17.564Z,100.00
2019-05-18T18:15:47.168Z,98.59
2019-05-18T18:18:16.515Z,100.00
2019-05-18T18:20:47.723Z,100.00
2019-05-18T18:23:16.887Z,100.00
2019-05-18T18:25:47.214Z,100.00
2019-05-18T18:28:16.626Z,100.00
2019-05-18T18:30:46.587Z,100.00
2019-05-18T18:33:16.310Z,100.00
2019-05-18T18:35:45.978Z,100.00
2019-05-18T18:38:19.354Z,100.00
2019-05-18T18:40:48.801Z,100.00
2019-05-18T18:43:20.449Z,100.00
2019-05-18T18:45:48.947Z,100.00
2019-05-18T18:48:19.345Z,100.00
2019-05-18T18:50:48.882Z,100.00
2019-05-18T18:53:18.043Z,100.00
2019-05-18T18:55:47.749Z,100.00
2019-05-18T18:58:16.931Z,100.00
2019-05-18T19:00:46.399Z,100.00
2019-05-18T19:03:15.572Z,100.00
2019-05-18T19:05:45.318Z,100.00
2019-05-18T19:08:23.678Z,100.00
2019-05-18T19:10:53.199Z,100.00
2019-05-18T19:13:22.787Z,100.00
2019-05-18T19:15:52.622Z,100.00
2019-05-18T19:18:22.713Z,100.00
2019-05-18T19:20:52.645Z,100.00
2019-05-18T19:23:22.643Z,100.00
2019-05-18T19:25:52.146Z,100.00
2019-05-18T19:28:21.381Z,100.00
2019-05-18T19:30:52.132Z,100.00
2019-05-18T19:33:28.113Z,100.00
2019-05-18T19:35:57.217Z,100.00
2019-05-18T19:38:29.095Z,100.00
2019-05-18T19:40:59.074Z,100.00
2019-05-18T19:43:28.722Z,100.00
2019-05-18T19:45:57.946Z,100.00
2019-05-18T19:48:27.346Z,100.00
2019-05-18T19:50:56.504Z,100.00
2019-05-18T19:53:27.858Z,100.00
2019-05-18T19:55:59.709Z,100.00
2019-05-18T19:58:29.797Z,100.00
2019-05-18T20:00:59.759Z,100.00
2019-05-18T20:03:29.078Z,100.00
2019-05-18T20:06:02.195Z,100.00
2019-05-18T20:08:32.590Z,100.00
2019-05-18T20:11:05.296Z,100.00
2019-05-18T20:13:34.696Z,100.00
2019-05-18T20:16:03.986Z,100.00
2019-05-18T20:18:33.686Z,100.00
2019-05-18T20:21:05.148Z,100.00
2019-05-18T20:23:35.482Z,100.00
2019-05-18T20:26:05.588Z,100.00
2019-05-18T20:28:35.138Z,100.00
2019-05-18T20:31:04.351Z,100.00
2019-05-18T20:33:35.521Z,100.00
2019-05-18T20:36:05.300Z,100.00
2019-05-18T20:38:37.368Z,100.00
2019-05-18T20:41:06.694Z,100.00
2019-05-18T20:43:36.473Z,100.00
2019-05-18T20:46:06.127Z,100.00
2019-05-18T20:48:36.016Z,100.00
2019-05-18T20:51:05.268Z,100.00
2019-05-18T20:53:35.460Z,100.00
2019-05-18T20:56:05.224Z,100.00
2019-05-18T20:58:40.071Z,100.00
2019-05-18T21:01:06.787Z,100.00
2019-05-18T21:03:36.970Z,100.00
2019-05-18T21:06:06.421Z,100.00
2019-05-18T21:08:36.193Z,100.00
2019-05-18T21:11:05.693Z,100.00
2019-05-18T21:13:35.138Z,100.00
2019-05-18T21:16:06.119Z,100.00
2019-05-18T21:18:35.565Z,100.00
2019-05-18T21:21:06.220Z,100.00
2019-05-18T21:23:35.388Z,100.00
2019-05-18T21:26:04.554Z,100.00
2019-05-18T21:28:33.707Z,100.00
2019-05-18T21:31:02.889Z,100.00
2019-05-18T21:33:35.417Z,100.00
2019-05-18T21:36:05.376Z,100.00
2019-05-18T21:38:34.879Z,100.00
2019-05-18T21:41:04.669Z,100.00
2019-05-18T21:43:33.819Z,100.00
2019-05-18T21:46:02.992Z,100.00
2019-05-18T21:48:32.163Z,100.00
2019-05-18T21:51:01.598Z,100.00
2019-05-18T21:53:31.458Z,100.00
2019-05-18T21:56:00.959Z,100.00
2019-05-18T21:58:30.724Z,100.00
2019-05-18T22:01:00.283Z,100.00
2019-05-18T22:03:29.477Z,100.00
2019-05-18T22:05:59.036Z,100.00
2019-05-18T22:08:28.232Z,100.00
2019-05-18T22:10:58.867Z,100.00
2019-05-18T22:13:28.338Z,100.00
2019-05-18T22:15:58.589Z,100.00
2019-05-18T22:18:27.786Z,100.00
2019-05-18T22:20:56.963Z,100.00
2019-05-18T22:23:27.194Z,100.00
2019-05-18T22:25:57.302Z,100.00
2019-05-18T22:28:26.988Z,100.00
2019-05-18T22:30:58.317Z,100.00
2019-05-18T22:33:29.873Z,100.00
2019-05-18T22:35:59.875Z,100.00
2019-05-18T22:38:31.376Z,100.00
2019-05-18T22:41:01.152Z,100.00
2019-05-18T22:43:30.626Z,100.00
2019-05-18T22:46:01.122Z,100.00
2019-05-18T22:48:41.469Z,100.00
2019-05-18T22:51:05.257Z,100.00
2019-05-18T22:53:37.174Z,100.00
2019-05-18T22:56:08.628Z,100.00
2019-05-18T22:58:39.359Z,100.00
2019-05-18T23:01:08.524Z,100.00
2019-05-18T23:03:38.018Z,100.00
2019-05-18T23:06:07.454Z,100.00
2019-05-18T23:08:38.083Z,100.00
2019-05-18T23:11:07.545Z,100.00
2019-05-18T23:13:37.761Z,100.00
2019-05-18T23:16:07.222Z,100.00
2019-05-18T23:18:37.034Z,100.00
2019-05-18T23:21:06.505Z,100.00
2019-05-18T23:23:36.007Z,100.00
2019-05-18T23:26:05.406Z,100.00
2019-05-18T23:28:34.877Z,100.00
2019-05-18T23:31:05.783Z,100.00
2019-05-18T23:33:35.228Z,100.00
2019-05-18T23:36:07.428Z,100.00
2019-05-18T23:38:38.025Z,100.00
2019-05-18T23:41:07.684Z,100.00
2019-05-18T23:43:37.362Z,100.00
2019-05-18T23:46:07.686Z,100.00
2019-05-18T23:48:37.126Z,100.00
2019-05-18T23:51:06.598Z,100.00
2019-05-18T23:53:36.314Z,100.00
2019-05-18T23:56:06.055Z,100.00
2019-05-18T23:58:35.564Z,100.00
